sensor_id;sensor_type;location;lat;lon;timestamp;pressure;altitude;pressure_sealevel;temperature;humidity
7200;BME280;3641;49.082;8.200;2023-07-09T00:01:42;100519.97;;;22.08;63.01
7200;BME280;3641;49.082;8.200;2023-07-09T00:04:09;100519.28;;;22.89;53.63
7200;BME280;3641;49.082;8.200;2023-07-09T00:06:36;100507.09;;;22.68;53.87
7200;BME280;3641;49.082;8.200;2023-07-09T00:09:03;100518.50;;;22.22;62.64
7200;BME280;3641;49.082;8.200;2023-07-09T00:11:32;100518.53;;;22.44;55.28
7200;BME280;3641;49.082;8.200;2023-07-09T00:13:58;100521.22;;;22.61;55.07
7200;BME280;3641;49.082;8.200;2023-07-09T00:16:25;100523.53;;;22.70;54.54
7200;BME280;3641;49.082;8.200;2023-07-09T00:18:52;100514.84;;;22.61;55.78
7200;BME280;3641;49.082;8.200;2023-07-09T00:21:20;100518.44;;;22.61;61.46
7200;BME280;3641;49.082;8.200;2023-07-09T00:23:47;100522.38;;;22.93;54.12
7200;BME280;3641;49.082;8.200;2023-07-09T00:26:16;100520.31;;;22.83;54.45
7200;BME280;3641;49.082;8.200;2023-07-09T00:28:44;100520.09;;;22.62;59.37
7200;BME280;3641;49.082;8.200;2023-07-09T00:31:12;100528.31;;;22.74;54.30
7200;BME280;3641;49.082;8.200;2023-07-09T00:33:40;100533.97;;;22.57;55.35
7200;BME280;3641;49.082;8.200;2023-07-09T00:36:11;100530.66;;;21.94;64.44
7200;BME280;3641;49.082;8.200;2023-07-09T00:38:40;100532.50;;;21.88;64.47
7200;BME280;3641;49.082;8.200;2023-07-09T00:41:14;100537.00;;;22.11;63.66
7200;BME280;3641;49.082;8.200;2023-07-09T00:43:45;100537.53;;;22.08;61.78
7200;BME280;3641;49.082;8.200;2023-07-09T00:49:01;100553.75;;;22.17;63.22
7200;BME280;3641;49.082;8.200;2023-07-09T00:51:31;100555.25;;;22.46;58.14
7200;BME280;3641;49.082;8.200;2023-07-09T00:54:02;100553.19;;;22.86;53.82
7200;BME280;3641;49.082;8.200;2023-07-09T00:56:36;100554.31;;;22.85;54.56
7200;BME280;3641;49.082;8.200;2023-07-09T00:59:08;100551.72;;;22.78;56.54
7200;BME280;3641;49.082;8.200;2023-07-09T01:01:37;100547.63;;;22.59;54.75
7200;BME280;3641;49.082;8.200;2023-07-09T01:04:05;100556.94;;;22.70;55.55
7200;BME280;3641;49.082;8.200;2023-07-09T01:06:36;100543.03;;;22.70;55.27
7200;BME280;3641;49.082;8.200;2023-07-09T01:09:04;100539.16;;;22.71;54.64
7200;BME280;3641;49.082;8.200;2023-07-09T01:11:32;100542.59;;;22.83;53.35
7200;BME280;3641;49.082;8.200;2023-07-09T01:14:01;100545.72;;;22.20;63.66
7200;BME280;3641;49.082;8.200;2023-07-09T01:16:31;100545.28;;;22.28;58.50
7200;BME280;3641;49.082;8.200;2023-07-09T01:18:58;100541.72;;;22.11;58.72
7200;BME280;3641;49.082;8.200;2023-07-09T01:21:27;100550.84;;;22.28;56.41
7200;BME280;3641;49.082;8.200;2023-07-09T01:23:53;100551.28;;;22.37;55.74
7200;BME280;3641;49.082;8.200;2023-07-09T01:26:22;100546.81;;;22.36;55.85
7200;BME280;3641;49.082;8.200;2023-07-09T01:28:50;100550.25;;;22.04;61.01
7200;BME280;3641;49.082;8.200;2023-07-09T01:31:17;100549.59;;;22.19;55.98
7200;BME280;3641;49.082;8.200;2023-07-09T01:33:45;100543.41;;;21.39;63.87
7200;BME280;3641;49.082;8.200;2023-07-09T01:36:13;100545.75;;;21.81;64.91
7200;BME280;3641;49.082;8.200;2023-07-09T01:38:43;100548.28;;;22.05;56.77
7200;BME280;3641;49.082;8.200;2023-07-09T01:41:10;100548.66;;;22.30;57.33
7200;BME280;3641;49.082;8.200;2023-07-09T01:43:39;100558.19;;;22.35;55.21
7200;BME280;3641;49.082;8.200;2023-07-09T01:46:06;100554.84;;;22.33;56.61
7200;BME280;3641;49.082;8.200;2023-07-09T01:48:34;100550.94;;;22.34;55.43
7200;BME280;3641;49.082;8.200;2023-07-09T01:51:06;100558.34;;;22.45;55.36
7200;BME280;3641;49.082;8.200;2023-07-09T01:53:33;100555.50;;;22.23;55.59
7200;BME280;3641;49.082;8.200;2023-07-09T01:56:02;100551.97;;;22.49;54.33
7200;BME280;3641;49.082;8.200;2023-07-09T01:58:29;100553.03;;;22.43;54.62
7200;BME280;3641;49.082;8.200;2023-07-09T02:00:57;100556.44;;;21.89;63.96
7200;BME280;3641;49.082;8.200;2023-07-09T02:03:23;100556.78;;;21.42;67.52
7200;BME280;3641;49.082;8.200;2023-07-09T02:05:52;100552.22;;;21.87;58.62
7200;BME280;3641;49.082;8.200;2023-07-09T02:08:19;100557.41;;;21.61;62.65
7200;BME280;3641;49.082;8.200;2023-07-09T02:10:48;100563.47;;;21.12;68.31
7200;BME280;3641;49.082;8.200;2023-07-09T02:13:16;100561.72;;;21.23;67.31
7200;BME280;3641;49.082;8.200;2023-07-09T02:15:43;100556.88;;;21.30;62.49
7200;BME280;3641;49.082;8.200;2023-07-09T02:18:10;100560.44;;;21.76;58.02
7200;BME280;3641;49.082;8.200;2023-07-09T02:20:36;100568.16;;;21.74;62.93
7200;BME280;3641;49.082;8.200;2023-07-09T02:23:03;100563.03;;;21.66;59.60
7200;BME280;3641;49.082;8.200;2023-07-09T02:25:30;100559.72;;;21.86;61.58
7200;BME280;3641;49.082;8.200;2023-07-09T02:27:56;100564.97;;;21.66;59.76
7200;BME280;3641;49.082;8.200;2023-07-09T02:30:25;100568.59;;;21.66;62.50
7200;BME280;3641;49.082;8.200;2023-07-09T02:32:51;100559.00;;;21.57;59.14
7200;BME280;3641;49.082;8.200;2023-07-09T02:35:19;100553.78;;;21.61;59.60
7200;BME280;3641;49.082;8.200;2023-07-09T02:37:46;100553.59;;;21.33;62.20
7200;BME280;3641;49.082;8.200;2023-07-09T02:40:13;100556.38;;;21.67;58.45
7200;BME280;3641;49.082;8.200;2023-07-09T02:42:39;100552.41;;;21.46;62.00
7200;BME280;3641;49.082;8.200;2023-07-09T02:45:08;100558.84;;;21.64;59.27
7200;BME280;3641;49.082;8.200;2023-07-09T02:47:37;100557.63;;;20.39;71.04
7200;BME280;3641;49.082;8.200;2023-07-09T02:50:04;100553.13;;;20.91;66.08
7200;BME280;3641;49.082;8.200;2023-07-09T02:52:30;100550.13;;;21.26;65.90
7200;BME280;3641;49.082;8.200;2023-07-09T02:54:57;100564.13;;;20.85;68.84
7200;BME280;3641;49.082;8.200;2023-07-09T02:57:23;100559.34;;;20.17;72.59
7200;BME280;3641;49.082;8.200;2023-07-09T02:59:50;100559.44;;;20.33;71.15
7200;BME280;3641;49.082;8.200;2023-07-09T03:02:16;100559.53;;;19.98;73.02
7200;BME280;3641;49.082;8.200;2023-07-09T03:04:44;100557.06;;;20.13;69.92
7200;BME280;3641;49.082;8.200;2023-07-09T03:07:10;100561.06;;;19.70;74.57
7200;BME280;3641;49.082;8.200;2023-07-09T03:09:37;100563.47;;;19.55;75.10
7200;BME280;3641;49.082;8.200;2023-07-09T03:12:04;100564.91;;;19.34;76.37
7200;BME280;3641;49.082;8.200;2023-07-09T03:14:32;100578.91;;;19.63;70.40
7200;BME280;3641;49.082;8.200;2023-07-09T03:16:58;100573.84;;;19.83;72.71
7200;BME280;3641;49.082;8.200;2023-07-09T03:19:24;100579.13;;;20.20;68.13
7200;BME280;3641;49.082;8.200;2023-07-09T03:21:52;100577.09;;;19.92;72.42
7200;BME280;3641;49.082;8.200;2023-07-09T03:24:19;100581.41;;;19.52;74.70
7200;BME280;3641;49.082;8.200;2023-07-09T03:26:46;100581.22;;;19.12;77.25
7200;BME280;3641;49.082;8.200;2023-07-09T03:29:12;100584.28;;;19.34;75.66
7200;BME280;3641;49.082;8.200;2023-07-09T03:31:39;100585.34;;;19.33;76.13
7200;BME280;3641;49.082;8.200;2023-07-09T03:34:06;100589.75;;;20.00;65.08
7200;BME280;3641;49.082;8.200;2023-07-09T03:36:32;100580.44;;;20.18;64.02
7200;BME280;3641;49.082;8.200;2023-07-09T03:39:01;100589.16;;;19.98;72.24
7200;BME280;3641;49.082;8.200;2023-07-09T03:41:28;100589.53;;;20.65;60.78
7200;BME280;3641;49.082;8.200;2023-07-09T03:43:55;100592.97;;;20.84;60.97
7200;BME280;3641;49.082;8.200;2023-07-09T03:46:21;100594.00;;;20.66;67.24
7200;BME280;3641;49.082;8.200;2023-07-09T03:48:48;100602.09;;;20.44;69.95
7200;BME280;3641;49.082;8.200;2023-07-09T03:51:15;100598.94;;;20.64;64.09
7200;BME280;3641;49.082;8.200;2023-07-09T03:53:44;100602.75;;;20.75;64.21
7200;BME280;3641;49.082;8.200;2023-07-09T03:56:12;100605.94;;;20.67;64.73
7200;BME280;3641;49.082;8.200;2023-07-09T03:58:38;100614.59;;;20.59;68.72
7200;BME280;3641;49.082;8.200;2023-07-09T04:01:05;100618.56;;;20.75;61.63
7200;BME280;3641;49.082;8.200;2023-07-09T04:03:32;100623.28;;;19.44;74.31
7200;BME280;3641;49.082;8.200;2023-07-09T04:05:59;100621.81;;;19.30;75.26
7200;BME280;3641;49.082;8.200;2023-07-09T04:08:25;100618.06;;;19.90;65.68
7200;BME280;3641;49.082;8.200;2023-07-09T04:10:53;100623.66;;;20.54;66.96
7200;BME280;3641;49.082;8.200;2023-07-09T04:13:21;100627.13;;;20.61;61.27
7200;BME280;3641;49.082;8.200;2023-07-09T04:15:48;100631.47;;;19.39;74.48
7200;BME280;3641;49.082;8.200;2023-07-09T04:18:15;100626.63;;;19.34;75.51
7200;BME280;3641;49.082;8.200;2023-07-09T04:20:41;100617.69;;;19.86;67.98
7200;BME280;3641;49.082;8.200;2023-07-09T04:23:14;100625.53;;;19.89;66.89
7200;BME280;3641;49.082;8.200;2023-07-09T04:25:41;100622.41;;;19.86;71.85
7200;BME280;3641;49.082;8.200;2023-07-09T04:28:07;100615.38;;;19.59;73.61
7200;BME280;3641;49.082;8.200;2023-07-09T04:30:35;100614.88;;;19.51;74.51
7200;BME280;3641;49.082;8.200;2023-07-09T04:33:02;100634.25;;;19.51;74.77
7200;BME280;3641;49.082;8.200;2023-07-09T04:35:29;100628.31;;;20.01;65.25
7200;BME280;3641;49.082;8.200;2023-07-09T04:37:55;100631.31;;;20.11;70.95
7200;BME280;3641;49.082;8.200;2023-07-09T04:40:22;100630.34;;;19.94;65.77
7200;BME280;3641;49.082;8.200;2023-07-09T04:42:48;100631.19;;;20.06;67.94
7200;BME280;3641;49.082;8.200;2023-07-09T04:45:15;100630.22;;;20.24;70.79
7200;BME280;3641;49.082;8.200;2023-07-09T04:47:42;100630.53;;;19.69;73.87
7200;BME280;3641;49.082;8.200;2023-07-09T04:50:10;100626.97;;;20.16;70.09
7200;BME280;3641;49.082;8.200;2023-07-09T04:52:38;100627.22;;;20.02;71.85
7200;BME280;3641;49.082;8.200;2023-07-09T04:55:06;100631.78;;;20.08;65.30
7200;BME280;3641;49.082;8.200;2023-07-09T04:57:33;100631.00;;;20.60;62.36
7200;BME280;3641;49.082;8.200;2023-07-09T05:00:00;100631.56;;;20.10;72.18
7200;BME280;3641;49.082;8.200;2023-07-09T05:02:27;100634.44;;;20.03;72.91
7200;BME280;3641;49.082;8.200;2023-07-09T05:04:55;100639.53;;;19.94;70.26
7200;BME280;3641;49.082;8.200;2023-07-09T05:07:21;100639.47;;;20.65;62.79
7200;BME280;3641;49.082;8.200;2023-07-09T05:09:48;100639.81;;;20.69;63.32
7200;BME280;3641;49.082;8.200;2023-07-09T05:12:14;100641.03;;;20.49;70.16
7200;BME280;3641;49.082;8.200;2023-07-09T05:14:41;100644.47;;;20.28;71.51
7200;BME280;3641;49.082;8.200;2023-07-09T05:17:08;100643.59;;;20.27;68.46
7200;BME280;3641;49.082;8.200;2023-07-09T05:19:35;100636.78;;;20.59;65.25
7200;BME280;3641;49.082;8.200;2023-07-09T05:22:03;100640.69;;;20.46;70.89
7200;BME280;3641;49.082;8.200;2023-07-09T05:24:30;100641.91;;;20.91;67.32
7200;BME280;3641;49.082;8.200;2023-07-09T05:26:56;100642.97;;;20.49;70.88
7200;BME280;3641;49.082;8.200;2023-07-09T05:29:24;100627.22;;;20.90;62.66
7200;BME280;3641;49.082;8.200;2023-07-09T05:31:51;100636.28;;;21.14;66.55
7200;BME280;3641;49.082;8.200;2023-07-09T05:34:17;100630.31;;;21.22;60.84
7200;BME280;3641;49.082;8.200;2023-07-09T05:36:44;100632.69;;;21.31;62.56
7200;BME280;3641;49.082;8.200;2023-07-09T05:39:12;100633.47;;;21.43;62.21
7200;BME280;3641;49.082;8.200;2023-07-09T05:41:39;100630.31;;;21.51;61.05
7200;BME280;3641;49.082;8.200;2023-07-09T05:44:05;100630.72;;;21.60;61.43
7200;BME280;3641;49.082;8.200;2023-07-09T05:46:34;100633.06;;;21.68;60.11
7200;BME280;3641;49.082;8.200;2023-07-09T05:49:02;100636.47;;;21.70;65.65
7200;BME280;3641;49.082;8.200;2023-07-09T05:51:29;100636.03;;;21.79;60.58
7200;BME280;3641;49.082;8.200;2023-07-09T05:53:56;100631.56;;;21.77;62.46
7200;BME280;3641;49.082;8.200;2023-07-09T05:56:24;100649.13;;;22.00;60.87
7200;BME280;3641;49.082;8.200;2023-07-09T05:58:50;100645.53;;;22.17;59.97
7200;BME280;3641;49.082;8.200;2023-07-09T06:01:17;100651.09;;;22.17;60.91
7200;BME280;3641;49.082;8.200;2023-07-09T06:03:45;100653.59;;;22.18;60.88
7200;BME280;3641;49.082;8.200;2023-07-09T06:06:12;100650.56;;;22.37;59.59
7200;BME280;3641;49.082;8.200;2023-07-09T06:08:38;100649.06;;;22.51;59.39
7200;BME280;3641;49.082;8.200;2023-07-09T06:11:05;100647.53;;;22.60;59.48
7200;BME280;3641;49.082;8.200;2023-07-09T06:13:33;100652.63;;;22.68;58.84
7200;BME280;3641;49.082;8.200;2023-07-09T06:16:00;100651.63;;;22.75;59.50
7200;BME280;3641;49.082;8.200;2023-07-09T06:18:27;100652.31;;;22.87;59.97
7200;BME280;3641;49.082;8.200;2023-07-09T06:20:57;100660.00;;;23.02;60.30
7200;BME280;3641;49.082;8.200;2023-07-09T06:23:24;100650.44;;;23.15;59.29
7200;BME280;3641;49.082;8.200;2023-07-09T06:25:51;100652.91;;;23.38;58.51
7200;BME280;3641;49.082;8.200;2023-07-09T06:28:21;100651.69;;;23.56;59.09
7200;BME280;3641;49.082;8.200;2023-07-09T06:30:49;100651.75;;;23.94;59.21
7200;BME280;3641;49.082;8.200;2023-07-09T06:33:17;100643.25;;;24.11;58.66
7200;BME280;3641;49.082;8.200;2023-07-09T06:35:48;100639.97;;;24.72;58.88
7200;BME280;3641;49.082;8.200;2023-07-09T06:38:15;100641.97;;;24.87;59.19
7200;BME280;3641;49.082;8.200;2023-07-09T06:40:42;100641.28;;;25.28;58.46
7200;BME280;3641;49.082;8.200;2023-07-09T06:43:08;100634.03;;;25.58;57.01
7200;BME280;3641;49.082;8.200;2023-07-09T06:45:35;100636.53;;;26.16;55.09
7200;BME280;3641;49.082;8.200;2023-07-09T06:48:03;100641.84;;;25.61;55.06
7200;BME280;3641;49.082;8.200;2023-07-09T06:50:33;100643.00;;;25.54;56.36
7200;BME280;3641;49.082;8.200;2023-07-09T06:53:00;100641.56;;;25.62;55.71
7200;BME280;3641;49.082;8.200;2023-07-09T06:55:27;100649.69;;;25.53;55.21
7200;BME280;3641;49.082;8.200;2023-07-09T06:57:53;100653.81;;;25.25;56.23
7200;BME280;3641;49.082;8.200;2023-07-09T07:00:20;100653.44;;;24.91;57.25
7200;BME280;3641;49.082;8.200;2023-07-09T07:02:46;100650.16;;;24.51;57.75
7200;BME280;3641;49.082;8.200;2023-07-09T07:05:14;100646.63;;;24.66;57.22
7200;BME280;3641;49.082;8.200;2023-07-09T07:07:41;100646.09;;;24.69;56.88
7200;BME280;3641;49.082;8.200;2023-07-09T07:10:08;100646.31;;;24.57;56.85
7200;BME280;3641;49.082;8.200;2023-07-09T07:12:41;100652.06;;;24.45;57.29
7200;BME280;3641;49.082;8.200;2023-07-09T07:15:09;100650.97;;;24.46;57.91
7200;BME280;3641;49.082;8.200;2023-07-09T07:17:35;100640.25;;;24.81;56.14
7200;BME280;3641;49.082;8.200;2023-07-09T07:20:02;100640.78;;;24.73;55.95
7200;BME280;3641;49.082;8.200;2023-07-09T07:22:30;100640.50;;;24.64;56.67
7200;BME280;3641;49.082;8.200;2023-07-09T07:24:57;100636.03;;;24.68;55.87
7200;BME280;3641;49.082;8.200;2023-07-09T07:27:23;100635.53;;;24.76;55.75
7200;BME280;3641;49.082;8.200;2023-07-09T07:29:50;100640.22;;;24.71;57.06
7200;BME280;3641;49.082;8.200;2023-07-09T07:32:16;100638.63;;;24.85;56.05
7200;BME280;3641;49.082;8.200;2023-07-09T07:34:43;100633.28;;;24.78;56.66
7200;BME280;3641;49.082;8.200;2023-07-09T07:37:09;100624.38;;;24.92;55.83
7200;BME280;3641;49.082;8.200;2023-07-09T07:39:38;100633.91;;;24.91;55.68
7200;BME280;3641;49.082;8.200;2023-07-09T07:42:05;100635.00;;;24.90;55.80
7200;BME280;3641;49.082;8.200;2023-07-09T07:44:32;100630.28;;;25.00;55.67
7200;BME280;3641;49.082;8.200;2023-07-09T07:46:58;100634.19;;;24.99;55.59
7200;BME280;3641;49.082;8.200;2023-07-09T07:49:25;100632.81;;;25.07;55.52
7200;BME280;3641;49.082;8.200;2023-07-09T07:51:51;100633.69;;;25.18;55.31
7200;BME280;3641;49.082;8.200;2023-07-09T07:54:17;100636.16;;;25.14;55.65
7200;BME280;3641;49.082;8.200;2023-07-09T07:56:45;100633.44;;;25.30;54.92
7200;BME280;3641;49.082;8.200;2023-07-09T07:59:12;100629.78;;;25.24;55.02
7200;BME280;3641;49.082;8.200;2023-07-09T08:01:39;100625.09;;;25.45;54.26
7200;BME280;3641;49.082;8.200;2023-07-09T08:04:06;100627.31;;;25.38;54.40
7200;BME280;3641;49.082;8.200;2023-07-09T08:06:32;100632.09;;;25.53;54.20
7200;BME280;3641;49.082;8.200;2023-07-09T08:08:59;100629.28;;;25.48;54.27
7200;BME280;3641;49.082;8.200;2023-07-09T08:11:25;100622.03;;;25.47;54.42
7200;BME280;3641;49.082;8.200;2023-07-09T08:13:54;100626.22;;;25.60;54.23
7200;BME280;3641;49.082;8.200;2023-07-09T08:16:21;100622.31;;;25.66;53.46
7200;BME280;3641;49.082;8.200;2023-07-09T08:18:48;100625.09;;;25.91;53.26
7200;BME280;3641;49.082;8.200;2023-07-09T08:21:17;100621.44;;;25.86;53.51
7200;BME280;3641;49.082;8.200;2023-07-09T08:23:44;100619.78;;;25.90;53.74
7200;BME280;3641;49.082;8.200;2023-07-09T08:26:11;100611.09;;;26.02;53.67
7200;BME280;3641;49.082;8.200;2023-07-09T08:28:37;100616.13;;;26.10;53.87
7200;BME280;3641;49.082;8.200;2023-07-09T08:31:05;100616.69;;;26.12;53.63
7200;BME280;3641;49.082;8.200;2023-07-09T08:33:32;100621.13;;;26.28;52.48
7200;BME280;3641;49.082;8.200;2023-07-09T08:35:59;100617.19;;;26.24;52.28
7200;BME280;3641;49.082;8.200;2023-07-09T08:38:25;100619.72;;;26.31;52.84
7200;BME280;3641;49.082;8.200;2023-07-09T08:40:56;100612.13;;;26.37;53.22
7200;BME280;3641;49.082;8.200;2023-07-09T08:43:32;100606.81;;;26.45;52.10
7200;BME280;3641;49.082;8.200;2023-07-09T08:46:06;100607.88;;;26.55;50.75
7200;BME280;3641;49.082;8.200;2023-07-09T08:48:35;100614.84;;;26.62;51.21
7200;BME280;3641;49.082;8.200;2023-07-09T08:51:09;100613.16;;;26.72;50.28
7200;BME280;3641;49.082;8.200;2023-07-09T08:53:42;100617.63;;;26.68;51.22
7200;BME280;3641;49.082;8.200;2023-07-09T08:56:13;100605.06;;;26.60;51.67
7200;BME280;3641;49.082;8.200;2023-07-09T08:58:40;100612.25;;;26.81;51.93
7200;BME280;3641;49.082;8.200;2023-07-09T09:01:18;100618.38;;;26.94;51.12
7200;BME280;3641;49.082;8.200;2023-07-09T09:03:47;100615.19;;;27.06;50.58
7200;BME280;3641;49.082;8.200;2023-07-09T09:06:18;100620.59;;;26.97;50.28
7200;BME280;3641;49.082;8.200;2023-07-09T09:08:54;100616.66;;;26.98;50.47
7200;BME280;3641;49.082;8.200;2023-07-09T09:11:30;100619.31;;;27.18;49.03
7200;BME280;3641;49.082;8.200;2023-07-09T09:14:01;100623.19;;;27.33;49.62
7200;BME280;3641;49.082;8.200;2023-07-09T09:16:33;100616.66;;;27.48;48.41
7200;BME280;3641;49.082;8.200;2023-07-09T09:19:02;100621.09;;;27.54;49.62
7200;BME280;3641;49.082;8.200;2023-07-09T09:21:34;100610.28;;;27.71;49.14
7200;BME280;3641;49.082;8.200;2023-07-09T09:24:13;100609.59;;;27.85;47.70
7200;BME280;3641;49.082;8.200;2023-07-09T09:26:42;100615.50;;;27.83;48.81
7200;BME280;3641;49.082;8.200;2023-07-09T09:29:11;100614.31;;;27.89;49.71
7200;BME280;3641;49.082;8.200;2023-07-09T09:31:40;100604.88;;;28.09;47.58
7200;BME280;3641;49.082;8.200;2023-07-09T09:34:17;100597.13;;;28.25;48.08
7200;BME280;3641;49.082;8.200;2023-07-09T09:36:44;100590.31;;;28.32;48.51
7200;BME280;3641;49.082;8.200;2023-07-09T09:39:11;100598.63;;;28.66;46.04
7200;BME280;3641;49.082;8.200;2023-07-09T09:41:37;100599.75;;;28.65;46.06
7200;BME280;3641;49.082;8.200;2023-07-09T09:44:04;100594.44;;;28.63;46.28
7200;BME280;3641;49.082;8.200;2023-07-09T09:46:32;100587.16;;;28.81;46.93
7200;BME280;3641;49.082;8.200;2023-07-09T09:49:01;100579.22;;;29.08;44.63
7200;BME280;3641;49.082;8.200;2023-07-09T09:51:28;100585.22;;;29.01;44.33
7200;BME280;3641;49.082;8.200;2023-07-09T09:53:58;100576.63;;;29.30;42.96
7200;BME280;3641;49.082;8.200;2023-07-09T09:56:28;100574.16;;;29.62;43.13
7200;BME280;3641;49.082;8.200;2023-07-09T09:58:56;100567.75;;;29.56;42.61
7200;BME280;3641;49.082;8.200;2023-07-09T10:01:26;100567.75;;;29.56;41.66
7200;BME280;3641;49.082;8.200;2023-07-09T10:03:55;100562.28;;;29.65;41.44
7200;BME280;3641;49.082;8.200;2023-07-09T10:06:33;100564.53;;;29.82;41.04
7200;BME280;3641;49.082;8.200;2023-07-09T10:09:04;100554.66;;;29.98;41.21
7200;BME280;3641;49.082;8.200;2023-07-09T10:11:39;100551.72;;;29.89;40.87
7200;BME280;3641;49.082;8.200;2023-07-09T10:14:22;100551.13;;;30.48;38.35
7200;BME280;3641;49.082;8.200;2023-07-09T10:16:55;100554.69;;;30.40;41.01
7200;BME280;3641;49.082;8.200;2023-07-09T10:19:31;100548.81;;;30.22;40.60
7200;BME280;3641;49.082;8.200;2023-07-09T10:22:05;100545.97;;;30.36;41.88
7200;BME280;3641;49.082;8.200;2023-07-09T10:24:41;100540.16;;;30.33;42.77
7200;BME280;3641;49.082;8.200;2023-07-09T10:27:12;100540.19;;;30.47;43.47
7200;BME280;3641;49.082;8.200;2023-07-09T10:32:46;100536.72;;;30.64;40.01
7200;BME280;3641;49.082;8.200;2023-07-09T10:35:22;100543.66;;;30.80;42.83
7200;BME280;3641;49.082;8.200;2023-07-09T10:38:08;100547.88;;;30.69;45.25
7200;BME280;3641;49.082;8.200;2023-07-09T10:40:41;100535.34;;;30.75;43.39
7200;BME280;3641;49.082;8.200;2023-07-09T10:43:14;100535.91;;;31.22;39.01
7200;BME280;3641;49.082;8.200;2023-07-09T10:45:44;100528.50;;;31.04;39.67
7200;BME280;3641;49.082;8.200;2023-07-09T10:48:16;100528.88;;;31.11;42.92
7200;BME280;3641;49.082;8.200;2023-07-09T10:50:47;100526.16;;;31.28;42.66
7200;BME280;3641;49.082;8.200;2023-07-09T10:53:28;100515.06;;;31.86;33.89
7200;BME280;3641;49.082;8.200;2023-07-09T10:55:59;100514.34;;;31.72;39.53
7200;BME280;3641;49.082;8.200;2023-07-09T10:58:32;100523.94;;;31.39;41.82
7200;BME280;3641;49.082;8.200;2023-07-09T11:01:01;100531.88;;;31.37;36.66
7200;BME280;3641;49.082;8.200;2023-07-09T11:03:36;100529.81;;;31.51;41.78
7200;BME280;3641;49.082;8.200;2023-07-09T11:06:11;100522.81;;;31.72;35.95
7200;BME280;3641;49.082;8.200;2023-07-09T11:08:42;100526.16;;;31.74;37.13
7200;BME280;3641;49.082;8.200;2023-07-09T11:11:13;100518.75;;;32.27;34.05
7200;BME280;3641;49.082;8.200;2023-07-09T11:13:41;100517.41;;;32.15;39.74
7200;BME280;3641;49.082;8.200;2023-07-09T11:16:13;100518.31;;;32.02;34.73
7200;BME280;3641;49.082;8.200;2023-07-09T11:18:41;100516.28;;;31.94;39.29
7200;BME280;3641;49.082;8.200;2023-07-09T11:21:19;100516.25;;;31.85;41.41
7200;BME280;3641;49.082;8.200;2023-07-09T11:23:49;100509.00;;;32.01;39.14
7200;BME280;3641;49.082;8.200;2023-07-09T11:26:23;100504.44;;;32.23;38.59
7200;BME280;3641;49.082;8.200;2023-07-09T11:28:52;100503.94;;;32.12;40.91
7200;BME280;3641;49.082;8.200;2023-07-09T11:31:22;100506.44;;;31.91;38.77
7200;BME280;3641;49.082;8.200;2023-07-09T11:33:59;100504.09;;;32.25;40.42
7200;BME280;3641;49.082;8.200;2023-07-09T11:36:28;100502.88;;;32.57;36.07
7200;BME280;3641;49.082;8.200;2023-07-09T11:38:57;100502.34;;;32.46;40.25
7200;BME280;3641;49.082;8.200;2023-07-09T11:41:27;100507.81;;;32.43;34.93
7200;BME280;3641;49.082;8.200;2023-07-09T11:44:03;100498.53;;;32.51;35.68
7200;BME280;3641;49.082;8.200;2023-07-09T11:46:32;100495.19;;;32.31;38.04
7200;BME280;3641;49.082;8.200;2023-07-09T11:49:01;100485.72;;;32.45;32.93
7200;BME280;3641;49.082;8.200;2023-07-09T11:51:38;100487.16;;;32.25;38.07
7200;BME280;3641;49.082;8.200;2023-07-09T11:54:11;100491.38;;;32.62;36.42
7200;BME280;3641;49.082;8.200;2023-07-09T11:56:38;100487.72;;;32.53;39.77
7200;BME280;3641;49.082;8.200;2023-07-09T11:59:04;100474.94;;;32.55;40.21
7200;BME280;3641;49.082;8.200;2023-07-09T12:01:34;100483.38;;;32.47;36.67
7200;BME280;3641;49.082;8.200;2023-07-09T12:04:04;100472.44;;;32.63;40.01
7200;BME280;3641;49.082;8.200;2023-07-09T12:06:32;100471.16;;;32.78;34.18
7200;BME280;3641;49.082;8.200;2023-07-09T12:08:59;100472.16;;;32.73;35.41
7200;BME280;3641;49.082;8.200;2023-07-09T12:11:29;100459.81;;;32.60;32.55
7200;BME280;3641;49.082;8.200;2023-07-09T12:14:01;100468.13;;;32.91;31.59
7200;BME280;3641;49.082;8.200;2023-07-09T12:16:30;100461.84;;;32.68;37.61
7200;BME280;3641;49.082;8.200;2023-07-09T12:18:57;100459.66;;;32.83;35.41
7200;BME280;3641;49.082;8.200;2023-07-09T12:21:25;100453.31;;;33.12;29.56
7200;BME280;3641;49.082;8.200;2023-07-09T12:23:52;100441.69;;;32.87;38.01
7200;BME280;3641;49.082;8.200;2023-07-09T12:26:21;100442.69;;;32.91;37.63
7200;BME280;3641;49.082;8.200;2023-07-09T12:28:53;100431.84;;;33.02;32.17
7200;BME280;3641;49.082;8.200;2023-07-09T12:31:25;100434.03;;;32.97;33.61
7200;BME280;3641;49.082;8.200;2023-07-09T12:33:53;100428.72;;;32.95;35.86
7200;BME280;3641;49.082;8.200;2023-07-09T12:36:20;100423.03;;;33.04;37.35
7200;BME280;3641;49.082;8.200;2023-07-09T12:38:49;100419.03;;;33.22;34.75
7200;BME280;3641;49.082;8.200;2023-07-09T12:41:20;100414.69;;;33.07;37.66
7200;BME280;3641;49.082;8.200;2023-07-09T12:43:49;100416.38;;;33.00;38.26
7200;BME280;3641;49.082;8.200;2023-07-09T12:46:17;100406.38;;;33.28;36.52
7200;BME280;3641;49.082;8.200;2023-07-09T12:48:45;100403.38;;;33.07;34.83
7200;BME280;3641;49.082;8.200;2023-07-09T12:51:16;100390.91;;;33.08;34.42
7200;BME280;3641;49.082;8.200;2023-07-09T12:53:44;100391.75;;;33.09;35.06
7200;BME280;3641;49.082;8.200;2023-07-09T12:56:13;100393.06;;;33.11;31.98
7200;BME280;3641;49.082;8.200;2023-07-09T12:58:40;100387.41;;;33.20;30.92
7200;BME280;3641;49.082;8.200;2023-07-09T13:01:08;100388.22;;;33.29;32.73
7200;BME280;3641;49.082;8.200;2023-07-09T13:03:41;100388.22;;;33.29;34.60
7200;BME280;3641;49.082;8.200;2023-07-09T13:06:30;100388.69;;;33.31;29.95
7200;BME280;3641;49.082;8.200;2023-07-09T13:09:01;100385.44;;;33.21;29.96
7200;BME280;3641;49.082;8.200;2023-07-09T13:11:33;100384.09;;;33.18;35.83
7200;BME280;3641;49.082;8.200;2023-07-09T13:14:03;100377.16;;;32.98;34.08
7200;BME280;3641;49.082;8.200;2023-07-09T13:16:30;100380.81;;;32.99;32.47
7200;BME280;3641;49.082;8.200;2023-07-09T13:18:58;100383.28;;;32.91;36.84
7200;BME280;3641;49.082;8.200;2023-07-09T13:21:24;100385.63;;;32.89;37.58
7200;BME280;3641;49.082;8.200;2023-07-09T13:23:52;100374.66;;;32.97;34.12